Airfield :
LOGIN :

Register | Disclaimer

   EN    FR    IT 

 










Legend :    VFR   Marginal VFR   IFR   Intensive IFR   Very Intensive IFR
Visi :
Ceiling :
>= 8 km
>= 3000ft
5 to 8 km
1000 to 3000 ft
1500m to 5 km
500 to 1000 ft
800 to 1500m
200 to 500 ft
< 800m
< 200 ft
Symbols :   Thunderstorms  Fog  Heavy snow  Heavy precipitations  Wind > 20 kt
SIGMETs :     Misc.  Thunderstorms  Icing  Turbulence  Mountain Waves  Volcanic Ashes






- Airport Elevation : 3 ft
- IATA code : DHR


EHKD - Den Helder De Kooy

CURRENT METAR :
  • 071625Z AUTO 22019KT 190V250 9999 FEW017 BKN020 BKN025 16/12 Q1015 WHT TEMPO SCT014 BKN020

EXPIRED METARs :
  • 071602Z AUTO 22016KT 180V240 9999 FEW017 SCT021 BKN027 16/13 Q1015 WHT TEMPO SCT014 BKN020
  • 071557Z AUTO 21015KT 180V240 9999 SCT017 SCT020 BKN023 16/13 Q1015 WHT TEMPO 21021G31KT FEW012 SCT014 BKN020
  • 071539Z AUTO 21019KT 190V250 9999 FEW014 BKN240 BKN310 16/13 Q1015 BLU TEMPO 21021G31KT FEW012 SCT014 BKN020
  • 071527Z AUTO 22018KT 180V250 9999 SCT014 SCT017 BKN059 16/13 Q1016 GRN TEMPO 21021G31KT FEW012 SCT014 BKN020
  • 071506Z AUTO 22018G28KT 190V250 9999 FEW013 BKN016 OVC020 16/13 Q1016 WHT TEMPO 21021G31KT FEW012 SCT014 BKN020
  • 071502Z AUTO 22018KT 190V250 9999 SCT014 BKN016 OVC020 16/13 Q1016 GRN TEMPO 21021G31KT FEW012 SCT014 BKN020
  • 071455Z AUTO 21020G30KT 180V240 9999 FEW013 SCT017 BKN240 16/13 Q1016 WHT TEMPO 21021G31KT FEW012 SCT014 BKN020
  • 071435Z AUTO 21020G30KT 180V240 9999 FEW012 BKN015 BKN019 16/13 Q1016 WHT TEMPO 21021G31KT FEW012 SCT014 BKN020
  • 071427Z AUTO 21019G30KT 180V240 9999 FEW012 BKN015 BKN058 16/13 Q1016 WHT TEMPO 21021G31KT FEW012 SCT014 BKN020
  • 071404Z AUTO 21019KT 180V250 9999 FEW011 SCT015 BKN018 16/13 Q1017 WHT TEMPO 21021G31KT FEW012 SCT014 BKN020
  • 071355Z AUTO 22018KT 180V250 9999 SCT012 BKN015 BKN021 16/13 Q1017 GRN TEMPO 21021G31KT FEW012 SCT014 BKN020
  • 071344Z AUTO 21019KT 180V250 9999 SCT011 BKN014 BKN018 16/13 Q1017 GRN TEMPO 21021G31KT FEW012 SCT014 BKN020
  • 071327Z AUTO 21021G32KT 180V250 9999 SCT011 BKN016 BKN028 16/13 Q1017 GRN TEMPO 21021G31KT FEW012 SCT014 BKN020

TAF TAF EHKD
Valid from the 07 at 13:00 until the 08 at 01:00 UTC


071219Z 0713/0801 21021KT 9999 SCT022
TEMPO 0713/0717 22021G31KT FEW012 SCT014
BECMG 0720/0722 28016KT
TEMPO 0721/0800 4500 RA SHRA FEW012 SCT015 SCT020CB
PROB30
TEMPO 0722/0800 3500 TSRA FEW010 SCT012 BKN018CB



MET'MAP, your aeronautical weather chart ! - Copyright ORBIFLY December 2007 - Disclaimer

ORBIFLY MET'MAP TEAM :

Programming & Development : Alexandra Zaïnal
Original concept : Baudouin d'Aumeries
Technical & hardware support : Manuel Goepfert
Assistance : Marc-Olivier Méhu




SOURCES & CREDITS :

   NOAA